sensor_id;sensor_type;location;lat;lon;timestamp;P1;durP1;ratioP1;P2;durP2;ratioP2
48203;SDS011;33994;50.998;5.864;2023-12-07T00:01:22;37.35;;;16.92;;
48203;SDS011;33994;50.998;5.864;2023-12-07T00:04:25;32.17;;;16.20;;
48203;SDS011;33994;50.998;5.864;2023-12-07T00:07:28;33.42;;;16.38;;
48203;SDS011;33994;50.998;5.864;2023-12-07T00:10:32;34.10;;;18.08;;
48203;SDS011;33994;50.998;5.864;2023-12-07T00:13:37;32.00;;;16.17;;
48203;SDS011;33994;50.998;5.864;2023-12-07T00:16:40;34.35;;;17.40;;
48203;SDS011;33994;50.998;5.864;2023-12-07T00:19:44;32.60;;;16.98;;
48203;SDS011;33994;50.998;5.864;2023-12-07T00:22:47;38.53;;;18.73;;
48203;SDS011;33994;50.998;5.864;2023-12-07T00:25:51;36.97;;;17.55;;
48203;SDS011;33994;50.998;5.864;2023-12-07T00:28:59;38.05;;;19.50;;
48203;SDS011;33994;50.998;5.864;2023-12-07T00:35:06;35.25;;;19.25;;
48203;SDS011;33994;50.998;5.864;2023-12-07T00:38:11;38.70;;;17.80;;
48203;SDS011;33994;50.998;5.864;2023-12-07T00:41:15;43.30;;;20.02;;
48203;SDS011;33994;50.998;5.864;2023-12-07T00:44:20;36.83;;;19.35;;
48203;SDS011;33994;50.998;5.864;2023-12-07T00:47:23;39.78;;;20.10;;
48203;SDS011;33994;50.998;5.864;2023-12-07T00:50:27;40.60;;;19.90;;
48203;SDS011;33994;50.998;5.864;2023-12-07T00:53:30;48.08;;;21.63;;
48203;SDS011;33994;50.998;5.864;2023-12-07T00:56:34;43.85;;;20.95;;
48203;SDS011;33994;50.998;5.864;2023-12-07T00:59:40;42.67;;;21.02;;
48203;SDS011;33994;50.998;5.864;2023-12-07T01:02:46;44.60;;;19.85;;
48203;SDS011;33994;50.998;5.864;2023-12-07T01:05:49;42.50;;;21.17;;
48203;SDS011;33994;50.998;5.864;2023-12-07T01:08:53;39.42;;;21.13;;
48203;SDS011;33994;50.998;5.864;2023-12-07T01:11:57;43.20;;;20.70;;
48203;SDS011;33994;50.998;5.864;2023-12-07T01:15:03;43.33;;;20.10;;
48203;SDS011;33994;50.998;5.864;2023-12-07T01:18:07;47.63;;;21.08;;
48203;SDS011;33994;50.998;5.864;2023-12-07T01:21:10;53.38;;;22.95;;
48203;SDS011;33994;50.998;5.864;2023-12-07T01:24:13;55.92;;;25.00;;
48203;SDS011;33994;50.998;5.864;2023-12-07T01:27:17;62.30;;;28.08;;
48203;SDS011;33994;50.998;5.864;2023-12-07T01:30:21;75.35;;;30.65;;
48203;SDS011;33994;50.998;5.864;2023-12-07T01:33:24;70.13;;;30.20;;
48203;SDS011;33994;50.998;5.864;2023-12-07T01:36:29;67.53;;;28.80;;
48203;SDS011;33994;50.998;5.864;2023-12-07T01:39:33;82.82;;;28.92;;
48203;SDS011;33994;50.998;5.864;2023-12-07T01:42:37;70.32;;;29.02;;
48203;SDS011;33994;50.998;5.864;2023-12-07T01:45:42;67.57;;;26.08;;
48203;SDS011;33994;50.998;5.864;2023-12-07T01:48:46;69.32;;;26.33;;
48203;SDS011;33994;50.998;5.864;2023-12-07T01:51:50;65.00;;;26.17;;
48203;SDS011;33994;50.998;5.864;2023-12-07T01:54:53;69.72;;;25.95;;
48203;SDS011;33994;50.998;5.864;2023-12-07T01:57:56;71.28;;;24.77;;
48203;SDS011;33994;50.998;5.864;2023-12-07T02:01:04;70.70;;;25.55;;
48203;SDS011;33994;50.998;5.864;2023-12-07T02:04:07;70.22;;;25.88;;
48203;SDS011;33994;50.998;5.864;2023-12-07T02:07:12;67.38;;;24.50;;
48203;SDS011;33994;50.998;5.864;2023-12-07T02:10:15;68.07;;;27.10;;
48203;SDS011;33994;50.998;5.864;2023-12-07T02:13:20;72.07;;;26.52;;
48203;SDS011;33994;50.998;5.864;2023-12-07T02:16:27;75.20;;;26.92;;
48203;SDS011;33994;50.998;5.864;2023-12-07T02:19:47;77.93;;;26.48;;
48203;SDS011;33994;50.998;5.864;2023-12-07T02:23:19;76.55;;;27.90;;
48203;SDS011;33994;50.998;5.864;2023-12-07T02:26:31;79.78;;;28.13;;
48203;SDS011;33994;50.998;5.864;2023-12-07T02:29:36;75.03;;;27.08;;
48203;SDS011;33994;50.998;5.864;2023-12-07T02:32:39;80.25;;;26.52;;
48203;SDS011;33994;50.998;5.864;2023-12-07T02:35:46;54.17;;;19.65;;
48203;SDS011;33994;50.998;5.864;2023-12-07T02:38:51;71.65;;;26.02;;
48203;SDS011;33994;50.998;5.864;2023-12-07T02:42:03;47.78;;;18.73;;
48203;SDS011;33994;50.998;5.864;2023-12-07T02:45:08;55.03;;;23.02;;
48203;SDS011;33994;50.998;5.864;2023-12-07T02:48:12;57.53;;;23.00;;
48203;SDS011;33994;50.998;5.864;2023-12-07T02:51:16;60.80;;;21.83;;
48203;SDS011;33994;50.998;5.864;2023-12-07T02:54:18;59.33;;;23.88;;
48203;SDS011;33994;50.998;5.864;2023-12-07T02:57:23;62.70;;;24.08;;
48203;SDS011;33994;50.998;5.864;2023-12-07T03:00:26;57.90;;;23.15;;
48203;SDS011;33994;50.998;5.864;2023-12-07T03:03:30;57.28;;;23.55;;
48203;SDS011;33994;50.998;5.864;2023-12-07T03:06:33;59.50;;;24.85;;
48203;SDS011;33994;50.998;5.864;2023-12-07T03:09:36;61.20;;;24.98;;
48203;SDS011;33994;50.998;5.864;2023-12-07T03:12:41;58.50;;;24.02;;
48203;SDS011;33994;50.998;5.864;2023-12-07T03:15:45;60.97;;;24.90;;
48203;SDS011;33994;50.998;5.864;2023-12-07T03:18:48;58.25;;;23.88;;
48203;SDS011;33994;50.998;5.864;2023-12-07T03:21:52;62.83;;;26.48;;
48203;SDS011;33994;50.998;5.864;2023-12-07T03:24:55;65.68;;;25.55;;
48203;SDS011;33994;50.998;5.864;2023-12-07T03:28:04;62.60;;;25.70;;
48203;SDS011;33994;50.998;5.864;2023-12-07T03:31:09;58.45;;;24.90;;
48203;SDS011;33994;50.998;5.864;2023-12-07T03:34:12;58.97;;;24.35;;
48203;SDS011;33994;50.998;5.864;2023-12-07T03:37:16;55.75;;;23.23;;
48203;SDS011;33994;50.998;5.864;2023-12-07T03:40:19;55.10;;;22.42;;
48203;SDS011;33994;50.998;5.864;2023-12-07T03:43:25;49.83;;;21.67;;
48203;SDS011;33994;50.998;5.864;2023-12-07T03:46:28;51.70;;;22.70;;
48203;SDS011;33994;50.998;5.864;2023-12-07T03:49:32;56.10;;;22.92;;
48203;SDS011;33994;50.998;5.864;2023-12-07T03:52:36;49.03;;;21.95;;
48203;SDS011;33994;50.998;5.864;2023-12-07T03:55:40;57.47;;;22.92;;
48203;SDS011;33994;50.998;5.864;2023-12-07T03:58:45;51.67;;;21.15;;
48203;SDS011;33994;50.998;5.864;2023-12-07T04:01:50;54.60;;;23.38;;
48203;SDS011;33994;50.998;5.864;2023-12-07T04:04:54;49.97;;;22.00;;
48203;SDS011;33994;50.998;5.864;2023-12-07T04:08:00;53.17;;;22.90;;
48203;SDS011;33994;50.998;5.864;2023-12-07T04:11:03;55.58;;;23.80;;
48203;SDS011;33994;50.998;5.864;2023-12-07T04:14:08;52.40;;;23.70;;
48203;SDS011;33994;50.998;5.864;2023-12-07T04:17:11;56.22;;;24.27;;
48203;SDS011;33994;50.998;5.864;2023-12-07T04:20:15;53.60;;;22.75;;
48203;SDS011;33994;50.998;5.864;2023-12-07T04:23:18;48.85;;;21.85;;
48203;SDS011;33994;50.998;5.864;2023-12-07T04:26:22;52.00;;;20.45;;
48203;SDS011;33994;50.998;5.864;2023-12-07T04:29:27;43.63;;;19.52;;
48203;SDS011;33994;50.998;5.864;2023-12-07T04:32:31;44.00;;;20.02;;
48203;SDS011;33994;50.998;5.864;2023-12-07T04:35:35;46.40;;;20.08;;
48203;SDS011;33994;50.998;5.864;2023-12-07T04:38:38;48.65;;;20.33;;
48203;SDS011;33994;50.998;5.864;2023-12-07T04:41:42;49.22;;;20.58;;
48203;SDS011;33994;50.998;5.864;2023-12-07T04:44:47;47.10;;;19.48;;
48203;SDS011;33994;50.998;5.864;2023-12-07T04:47:51;48.35;;;20.73;;
48203;SDS011;33994;50.998;5.864;2023-12-07T04:50:54;46.30;;;19.25;;
48203;SDS011;33994;50.998;5.864;2023-12-07T04:53:58;47.38;;;19.88;;
48203;SDS011;33994;50.998;5.864;2023-12-07T04:57:02;44.33;;;21.27;;
48203;SDS011;33994;50.998;5.864;2023-12-07T05:00:08;38.13;;;18.55;;
48203;SDS011;33994;50.998;5.864;2023-12-07T05:03:12;44.28;;;21.02;;
48203;SDS011;33994;50.998;5.864;2023-12-07T05:06:15;44.90;;;19.42;;
48203;SDS011;33994;50.998;5.864;2023-12-07T05:09:18;41.65;;;19.85;;
48203;SDS011;33994;50.998;5.864;2023-12-07T05:12:21;43.53;;;18.83;;
48203;SDS011;33994;50.998;5.864;2023-12-07T05:15:26;41.45;;;18.25;;
48203;SDS011;33994;50.998;5.864;2023-12-07T05:18:29;44.03;;;20.10;;
48203;SDS011;33994;50.998;5.864;2023-12-07T05:21:34;42.97;;;19.35;;
48203;SDS011;33994;50.998;5.864;2023-12-07T05:24:37;45.20;;;20.45;;
48203;SDS011;33994;50.998;5.864;2023-12-07T05:27:41;37.38;;;18.88;;
48203;SDS011;33994;50.998;5.864;2023-12-07T05:30:46;34.25;;;17.58;;
48203;SDS011;33994;50.998;5.864;2023-12-07T05:33:49;34.17;;;16.17;;
48203;SDS011;33994;50.998;5.864;2023-12-07T05:36:54;32.63;;;16.45;;
48203;SDS011;33994;50.998;5.864;2023-12-07T05:39:57;37.33;;;17.83;;
48203;SDS011;33994;50.998;5.864;2023-12-07T05:42:59;32.13;;;16.33;;
48203;SDS011;33994;50.998;5.864;2023-12-07T05:46:04;39.60;;;17.45;;
48203;SDS011;33994;50.998;5.864;2023-12-07T05:49:07;35.67;;;17.05;;
48203;SDS011;33994;50.998;5.864;2023-12-07T05:52:11;38.50;;;18.80;;
48203;SDS011;33994;50.998;5.864;2023-12-07T05:55:15;35.47;;;17.52;;
48203;SDS011;33994;50.998;5.864;2023-12-07T05:58:18;34.35;;;17.48;;
48203;SDS011;33994;50.998;5.864;2023-12-07T06:01:23;35.08;;;16.02;;
48203;SDS011;33994;50.998;5.864;2023-12-07T06:04:26;38.47;;;18.13;;
48203;SDS011;33994;50.998;5.864;2023-12-07T06:07:31;33.92;;;16.15;;
48203;SDS011;33994;50.998;5.864;2023-12-07T06:10:34;33.25;;;16.70;;
48203;SDS011;33994;50.998;5.864;2023-12-07T06:13:38;30.40;;;15.90;;
48203;SDS011;33994;50.998;5.864;2023-12-07T06:16:44;30.90;;;15.57;;
48203;SDS011;33994;50.998;5.864;2023-12-07T06:19:48;32.20;;;15.80;;
48203;SDS011;33994;50.998;5.864;2023-12-07T06:22:51;34.83;;;17.10;;
48203;SDS011;33994;50.998;5.864;2023-12-07T06:25:57;35.50;;;16.77;;
48203;SDS011;33994;50.998;5.864;2023-12-07T06:29:00;34.55;;;16.15;;
48203;SDS011;33994;50.998;5.864;2023-12-07T06:32:05;33.17;;;16.55;;
48203;SDS011;33994;50.998;5.864;2023-12-07T06:35:09;31.00;;;15.80;;
48203;SDS011;33994;50.998;5.864;2023-12-07T06:38:14;35.47;;;16.45;;
48203;SDS011;33994;50.998;5.864;2023-12-07T06:41:18;36.65;;;15.75;;
48203;SDS011;33994;50.998;5.864;2023-12-07T06:44:21;32.28;;;15.25;;
48203;SDS011;33994;50.998;5.864;2023-12-07T06:47:26;32.55;;;16.15;;
48203;SDS011;33994;50.998;5.864;2023-12-07T06:50:30;34.20;;;16.27;;
48203;SDS011;33994;50.998;5.864;2023-12-07T06:53:33;29.75;;;16.23;;
48203;SDS011;33994;50.998;5.864;2023-12-07T06:56:36;33.20;;;16.08;;
48203;SDS011;33994;50.998;5.864;2023-12-07T06:59:41;30.90;;;15.52;;
48203;SDS011;33994;50.998;5.864;2023-12-07T07:02:47;35.45;;;16.75;;
48203;SDS011;33994;50.998;5.864;2023-12-07T07:05:50;33.28;;;16.00;;
48203;SDS011;33994;50.998;5.864;2023-12-07T07:08:53;33.30;;;16.48;;
48203;SDS011;33994;50.998;5.864;2023-12-07T07:11:56;31.83;;;16.42;;
48203;SDS011;33994;50.998;5.864;2023-12-07T07:15:00;32.72;;;15.35;;
48203;SDS011;33994;50.998;5.864;2023-12-07T07:18:09;31.55;;;16.02;;
48203;SDS011;33994;50.998;5.864;2023-12-07T07:21:12;35.92;;;16.55;;
48203;SDS011;33994;50.998;5.864;2023-12-07T07:24:15;33.55;;;16.58;;
48203;SDS011;33994;50.998;5.864;2023-12-07T07:27:18;32.92;;;14.90;;
48203;SDS011;33994;50.998;5.864;2023-12-07T07:30:22;31.35;;;15.43;;
48203;SDS011;33994;50.998;5.864;2023-12-07T07:33:26;35.08;;;15.05;;
48203;SDS011;33994;50.998;5.864;2023-12-07T07:36:30;30.40;;;15.25;;
48203;SDS011;33994;50.998;5.864;2023-12-07T07:39:35;36.17;;;15.18;;
48203;SDS011;33994;50.998;5.864;2023-12-07T07:42:38;31.48;;;14.98;;
48203;SDS011;33994;50.998;5.864;2023-12-07T07:45:41;34.90;;;16.63;;
48203;SDS011;33994;50.998;5.864;2023-12-07T07:48:47;31.63;;;14.23;;
48203;SDS011;33994;50.998;5.864;2023-12-07T07:51:51;31.25;;;15.32;;
48203;SDS011;33994;50.998;5.864;2023-12-07T07:54:55;30.55;;;14.95;;
48203;SDS011;33994;50.998;5.864;2023-12-07T07:57:58;31.85;;;16.10;;
48203;SDS011;33994;50.998;5.864;2023-12-07T08:01:01;32.95;;;15.18;;
48203;SDS011;33994;50.998;5.864;2023-12-07T08:04:07;32.72;;;16.30;;
48203;SDS011;33994;50.998;5.864;2023-12-07T08:07:11;42.58;;;16.15;;
48203;SDS011;33994;50.998;5.864;2023-12-07T08:10:15;32.83;;;16.10;;
48203;SDS011;33994;50.998;5.864;2023-12-07T08:13:18;31.75;;;15.43;;
48203;SDS011;33994;50.998;5.864;2023-12-07T08:16:21;35.10;;;16.05;;
48203;SDS011;33994;50.998;5.864;2023-12-07T08:19:26;34.15;;;14.82;;
48203;SDS011;33994;50.998;5.864;2023-12-07T08:22:30;36.80;;;16.42;;
48203;SDS011;33994;50.998;5.864;2023-12-07T08:25:33;30.13;;;14.85;;
48203;SDS011;33994;50.998;5.864;2023-12-07T08:28:36;33.13;;;16.35;;
48203;SDS011;33994;50.998;5.864;2023-12-07T08:31:39;32.42;;;16.77;;
48203;SDS011;33994;50.998;5.864;2023-12-07T08:34:44;33.70;;;14.90;;
48203;SDS011;33994;50.998;5.864;2023-12-07T08:37:49;36.13;;;16.85;;
48203;SDS011;33994;50.998;5.864;2023-12-07T08:40:52;43.08;;;17.83;;
48203;SDS011;33994;50.998;5.864;2023-12-07T08:43:55;37.40;;;17.40;;
48203;SDS011;33994;50.998;5.864;2023-12-07T08:46:58;33.83;;;16.95;;
48203;SDS011;33994;50.998;5.864;2023-12-07T08:50:03;34.50;;;17.98;;
48203;SDS011;33994;50.998;5.864;2023-12-07T08:53:07;37.13;;;17.30;;
48203;SDS011;33994;50.998;5.864;2023-12-07T08:56:10;38.05;;;16.48;;
48203;SDS011;33994;50.998;5.864;2023-12-07T08:59:13;39.50;;;19.13;;
48203;SDS011;33994;50.998;5.864;2023-12-07T09:02:18;36.72;;;17.15;;
48203;SDS011;33994;50.998;5.864;2023-12-07T09:05:24;37.80;;;17.50;;
48203;SDS011;33994;50.998;5.864;2023-12-07T09:08:28;37.40;;;17.03;;
48203;SDS011;33994;50.998;5.864;2023-12-07T09:11:31;35.90;;;16.50;;
48203;SDS011;33994;50.998;5.864;2023-12-07T09:14:35;37.15;;;16.58;;
48203;SDS011;33994;50.998;5.864;2023-12-07T09:17:38;35.90;;;17.85;;
48203;SDS011;33994;50.998;5.864;2023-12-07T09:20:44;33.85;;;16.40;;
48203;SDS011;33994;50.998;5.864;2023-12-07T09:23:47;36.08;;;16.00;;
48203;SDS011;33994;50.998;5.864;2023-12-07T09:26:51;32.22;;;16.17;;
48203;SDS011;33994;50.998;5.864;2023-12-07T09:29:54;35.20;;;16.45;;
48203;SDS011;33994;50.998;5.864;2023-12-07T09:32:59;35.75;;;17.10;;
48203;SDS011;33994;50.998;5.864;2023-12-07T09:36:05;35.20;;;16.98;;
48203;SDS011;33994;50.998;5.864;2023-12-07T09:39:08;35.97;;;16.45;;
48203;SDS011;33994;50.998;5.864;2023-12-07T09:42:15;33.97;;;16.48;;
48203;SDS011;33994;50.998;5.864;2023-12-07T09:45:20;31.98;;;15.57;;
48203;SDS011;33994;50.998;5.864;2023-12-07T09:48:23;33.47;;;16.77;;
48203;SDS011;33994;50.998;5.864;2023-12-07T09:51:30;31.73;;;16.17;;
48203;SDS011;33994;50.998;5.864;2023-12-07T09:54:34;33.10;;;15.05;;
48203;SDS011;33994;50.998;5.864;2023-12-07T09:57:39;32.03;;;15.85;;
48203;SDS011;33994;50.998;5.864;2023-12-07T10:00:42;31.60;;;15.43;;
48203;SDS011;33994;50.998;5.864;2023-12-07T10:03:46;31.63;;;15.45;;
48203;SDS011;33994;50.998;5.864;2023-12-07T10:06:50;30.75;;;15.43;;
48203;SDS011;33994;50.998;5.864;2023-12-07T10:09:53;25.73;;;14.07;;
48203;SDS011;33994;50.998;5.864;2023-12-07T10:12:59;32.30;;;15.15;;
48203;SDS011;33994;50.998;5.864;2023-12-07T10:16:05;27.65;;;15.05;;
48203;SDS011;33994;50.998;5.864;2023-12-07T10:19:12;29.50;;;14.20;;
48203;SDS011;33994;50.998;5.864;2023-12-07T10:22:19;31.65;;;15.75;;
48203;SDS011;33994;50.998;5.864;2023-12-07T10:25:22;30.35;;;14.65;;
48203;SDS011;33994;50.998;5.864;2023-12-07T10:28:27;26.65;;;14.15;;
48203;SDS011;33994;50.998;5.864;2023-12-07T10:31:30;31.27;;;13.90;;
48203;SDS011;33994;50.998;5.864;2023-12-07T10:34:35;27.92;;;14.40;;
48203;SDS011;33994;50.998;5.864;2023-12-07T10:37:41;28.98;;;13.20;;
48203;SDS011;33994;50.998;5.864;2023-12-07T10:40:45;31.67;;;15.60;;
48203;SDS011;33994;50.998;5.864;2023-12-07T10:43:51;27.05;;;14.32;;
48203;SDS011;33994;50.998;5.864;2023-12-07T10:46:56;32.28;;;14.25;;
48203;SDS011;33994;50.998;5.864;2023-12-07T10:50:00;24.88;;;13.80;;
48203;SDS011;33994;50.998;5.864;2023-12-07T10:53:15;26.98;;;14.30;;
48203;SDS011;33994;50.998;5.864;2023-12-07T10:56:24;31.25;;;15.18;;
48203;SDS011;33994;50.998;5.864;2023-12-07T10:59:36;28.92;;;15.05;;
48203;SDS011;33994;50.998;5.864;2023-12-07T11:02:41;27.27;;;14.88;;
48203;SDS011;33994;50.998;5.864;2023-12-07T11:05:46;29.08;;;15.30;;
48203;SDS011;33994;50.998;5.864;2023-12-07T11:08:51;23.38;;;13.10;;
48203;SDS011;33994;50.998;5.864;2023-12-07T11:12:01;24.45;;;13.13;;
48203;SDS011;33994;50.998;5.864;2023-12-07T11:15:10;26.55;;;13.30;;
48203;SDS011;33994;50.998;5.864;2023-12-07T11:18:13;27.73;;;13.70;;
48203;SDS011;33994;50.998;5.864;2023-12-07T11:21:16;25.70;;;13.27;;
48203;SDS011;33994;50.998;5.864;2023-12-07T11:24:21;21.88;;;12.10;;
48203;SDS011;33994;50.998;5.864;2023-12-07T11:27:28;23.10;;;11.25;;
48203;SDS011;33994;50.998;5.864;2023-12-07T11:30:35;19.33;;;11.07;;
48203;SDS011;33994;50.998;5.864;2023-12-07T11:33:39;20.25;;;11.20;;
48203;SDS011;33994;50.998;5.864;2023-12-07T11:36:43;18.08;;;10.48;;
48203;SDS011;33994;50.998;5.864;2023-12-07T11:39:50;20.20;;;10.85;;
48203;SDS011;33994;50.998;5.864;2023-12-07T11:42:53;23.67;;;11.80;;
48203;SDS011;33994;50.998;5.864;2023-12-07T11:45:56;24.35;;;12.77;;
48203;SDS011;33994;50.998;5.864;2023-12-07T11:48:59;22.27;;;11.32;;
48203;SDS011;33994;50.998;5.864;2023-12-07T11:52:13;16.98;;;9.52;;
48203;SDS011;33994;50.998;5.864;2023-12-07T11:55:19;14.60;;;8.52;;
48203;SDS011;33994;50.998;5.864;2023-12-07T11:58:22;16.25;;;8.82;;
48203;SDS011;33994;50.998;5.864;2023-12-07T12:01:26;19.42;;;9.55;;
48203;SDS011;33994;50.998;5.864;2023-12-07T12:04:31;18.23;;;8.75;;
48203;SDS011;33994;50.998;5.864;2023-12-07T12:07:34;18.42;;;8.75;;
48203;SDS011;33994;50.998;5.864;2023-12-07T12:10:40;26.60;;;11.10;;
48203;SDS011;33994;50.998;5.864;2023-12-07T12:13:44;23.83;;;10.32;;
48203;SDS011;33994;50.998;5.864;2023-12-07T12:16:49;21.95;;;10.63;;
48203;SDS011;33994;50.998;5.864;2023-12-07T12:19:52;19.85;;;10.07;;
48203;SDS011;33994;50.998;5.864;2023-12-07T12:22:57;18.15;;;8.82;;
48203;SDS011;33994;50.998;5.864;2023-12-07T12:26:03;15.25;;;8.32;;
48203;SDS011;33994;50.998;5.864;2023-12-07T12:29:07;19.77;;;7.68;;
48203;SDS011;33994;50.998;5.864;2023-12-07T12:32:11;13.65;;;6.78;;
48203;SDS011;33994;50.998;5.864;2023-12-07T12:35:14;13.15;;;6.55;;
48203;SDS011;33994;50.998;5.864;2023-12-07T12:38:17;12.73;;;6.80;;
48203;SDS011;33994;50.998;5.864;2023-12-07T12:41:25;16.92;;;8.70;;
48203;SDS011;33994;50.998;5.864;2023-12-07T12:47:33;18.20;;;9.60;;
48203;SDS011;33994;50.998;5.864;2023-12-07T12:50:37;18.77;;;9.90;;
48203;SDS011;33994;50.998;5.864;2023-12-07T12:53:44;20.67;;;11.02;;
48203;SDS011;33994;50.998;5.864;2023-12-07T12:56:50;21.08;;;9.82;;
48203;SDS011;33994;50.998;5.864;2023-12-07T12:59:54;21.13;;;10.05;;
48203;SDS011;33994;50.998;5.864;2023-12-07T13:02:57;21.30;;;10.75;;
48203;SDS011;33994;50.998;5.864;2023-12-07T13:06:01;25.85;;;9.65;;
48203;SDS011;33994;50.998;5.864;2023-12-07T13:09:04;19.35;;;9.82;;
48203;SDS011;33994;50.998;5.864;2023-12-07T13:12:09;18.73;;;10.02;;
48203;SDS011;33994;50.998;5.864;2023-12-07T13:15:13;18.55;;;9.18;;
48203;SDS011;33994;50.998;5.864;2023-12-07T13:18:16;17.60;;;9.90;;
48203;SDS011;33994;50.998;5.864;2023-12-07T13:21:19;20.30;;;9.55;;
48203;SDS011;33994;50.998;5.864;2023-12-07T13:24:22;15.70;;;8.95;;
48203;SDS011;33994;50.998;5.864;2023-12-07T13:27:28;22.13;;;9.68;;
48203;SDS011;33994;50.998;5.864;2023-12-07T13:30:32;15.88;;;8.60;;
48203;SDS011;33994;50.998;5.864;2023-12-07T13:33:36;16.73;;;8.98;;
48203;SDS011;33994;50.998;5.864;2023-12-07T13:36:41;15.88;;;8.20;;
48203;SDS011;33994;50.998;5.864;2023-12-07T13:39:44;19.95;;;8.63;;
48203;SDS011;33994;50.998;5.864;2023-12-07T13:42:49;19.83;;;9.38;;
48203;SDS011;33994;50.998;5.864;2023-12-07T13:45:53;19.50;;;9.45;;
48203;SDS011;33994;50.998;5.864;2023-12-07T13:48:56;22.20;;;12.10;;
48203;SDS011;33994;50.998;5.864;2023-12-07T13:51:59;16.10;;;9.02;;
48203;SDS011;33994;50.998;5.864;2023-12-07T13:55:03;15.25;;;8.38;;
48203;SDS011;33994;50.998;5.864;2023-12-07T13:58:09;17.48;;;9.50;;
48203;SDS011;33994;50.998;5.864;2023-12-07T14:01:14;15.35;;;8.82;;
48203;SDS011;33994;50.998;5.864;2023-12-07T14:04:17;15.30;;;8.75;;
48203;SDS011;33994;50.998;5.864;2023-12-07T14:07:22;20.52;;;8.27;;
48203;SDS011;33994;50.998;5.864;2023-12-07T14:10:27;15.80;;;8.00;;
48203;SDS011;33994;50.998;5.864;2023-12-07T14:13:32;18.75;;;9.35;;
48203;SDS011;33994;50.998;5.864;2023-12-07T14:16:36;14.75;;;7.65;;
48203;SDS011;33994;50.998;5.864;2023-12-07T14:19:40;15.32;;;7.63;;
48203;SDS011;33994;50.998;5.864;2023-12-07T14:22:43;15.00;;;8.35;;
48203;SDS011;33994;50.998;5.864;2023-12-07T14:25:47;15.82;;;8.00;;
48203;SDS011;33994;50.998;5.864;2023-12-07T14:28:52;17.50;;;8.50;;
48203;SDS011;33994;50.998;5.864;2023-12-07T14:31:57;17.40;;;8.45;;
48203;SDS011;33994;50.998;5.864;2023-12-07T14:35:01;18.00;;;8.60;;
48203;SDS011;33994;50.998;5.864;2023-12-07T14:38:05;17.33;;;8.15;;
48203;SDS011;33994;50.998;5.864;2023-12-07T14:41:09;14.30;;;7.82;;
48203;SDS011;33994;50.998;5.864;2023-12-07T14:44:14;14.73;;;8.13;;
48203;SDS011;33994;50.998;5.864;2023-12-07T14:47:17;14.15;;;7.88;;
48203;SDS011;33994;50.998;5.864;2023-12-07T14:50:20;18.80;;;8.73;;
48203;SDS011;33994;50.998;5.864;2023-12-07T14:53:24;17.65;;;8.98;;
48203;SDS011;33994;50.998;5.864;2023-12-07T14:56:28;17.83;;;8.43;;
48203;SDS011;33994;50.998;5.864;2023-12-07T14:59:34;16.35;;;8.73;;
48203;SDS011;33994;50.998;5.864;2023-12-07T15:02:37;14.82;;;7.93;;
48203;SDS011;33994;50.998;5.864;2023-12-07T15:05:40;20.75;;;8.85;;
48203;SDS011;33994;50.998;5.864;2023-12-07T15:08:44;17.08;;;8.57;;
48203;SDS011;33994;50.998;5.864;2023-12-07T15:11:47;17.05;;;8.18;;
48203;SDS011;33994;50.998;5.864;2023-12-07T15:14:55;16.30;;;8.55;;
48203;SDS011;33994;50.998;5.864;2023-12-07T15:17:59;19.65;;;9.10;;
48203;SDS011;33994;50.998;5.864;2023-12-07T15:21:03;11.90;;;7.50;;
48203;SDS011;33994;50.998;5.864;2023-12-07T15:24:07;19.15;;;8.38;;
48203;SDS011;33994;50.998;5.864;2023-12-07T15:27:10;14.20;;;7.47;;
48203;SDS011;33994;50.998;5.864;2023-12-07T15:30:15;14.35;;;8.23;;
48203;SDS011;33994;50.998;5.864;2023-12-07T15:33:18;15.27;;;8.50;;
48203;SDS011;33994;50.998;5.864;2023-12-07T15:36:24;16.48;;;8.82;;
48203;SDS011;33994;50.998;5.864;2023-12-07T15:39:27;18.35;;;7.78;;
48203;SDS011;33994;50.998;5.864;2023-12-07T15:42:31;19.90;;;8.73;;
48203;SDS011;33994;50.998;5.864;2023-12-07T15:45:36;15.88;;;7.50;;
48203;SDS011;33994;50.998;5.864;2023-12-07T15:48:39;17.52;;;7.38;;
48203;SDS011;33994;50.998;5.864;2023-12-07T15:51:42;12.35;;;7.20;;
48203;SDS011;33994;50.998;5.864;2023-12-07T15:54:46;14.77;;;8.13;;
48203;SDS011;33994;50.998;5.864;2023-12-07T15:57:49;17.42;;;8.75;;
48203;SDS011;33994;50.998;5.864;2023-12-07T16:00:53;16.27;;;8.60;;
48203;SDS011;33994;50.998;5.864;2023-12-07T16:03:57;17.45;;;8.38;;
48203;SDS011;33994;50.998;5.864;2023-12-07T16:07:02;14.98;;;8.07;;
48203;SDS011;33994;50.998;5.864;2023-12-07T16:10:07;16.83;;;7.90;;
48203;SDS011;33994;50.998;5.864;2023-12-07T16:13:11;17.80;;;9.40;;
48203;SDS011;33994;50.998;5.864;2023-12-07T16:16:18;14.93;;;8.25;;
48203;SDS011;33994;50.998;5.864;2023-12-07T16:19:21;15.65;;;8.48;;
48203;SDS011;33994;50.998;5.864;2023-12-07T16:22:24;16.17;;;8.13;;
48203;SDS011;33994;50.998;5.864;2023-12-07T16:25:28;18.77;;;8.35;;
48203;SDS011;33994;50.998;5.864;2023-12-07T16:28:31;15.77;;;8.63;;
48203;SDS011;33994;50.998;5.864;2023-12-07T16:31:36;18.48;;;8.60;;
48203;SDS011;33994;50.998;5.864;2023-12-07T16:34:39;22.00;;;10.60;;
48203;SDS011;33994;50.998;5.864;2023-12-07T16:37:44;20.60;;;10.10;;
48203;SDS011;33994;50.998;5.864;2023-12-07T16:40:47;17.13;;;9.18;;
48203;SDS011;33994;50.998;5.864;2023-12-07T16:43:50;17.70;;;9.02;;
48203;SDS011;33994;50.998;5.864;2023-12-07T16:46:58;18.95;;;8.35;;
48203;SDS011;33994;50.998;5.864;2023-12-07T16:50:02;21.88;;;9.75;;
48203;SDS011;33994;50.998;5.864;2023-12-07T16:53:05;18.73;;;9.00;;
48203;SDS011;33994;50.998;5.864;2023-12-07T16:56:09;20.00;;;8.57;;
48203;SDS011;33994;50.998;5.864;2023-12-07T16:59:12;18.88;;;8.90;;
48203;SDS011;33994;50.998;5.864;2023-12-07T17:02:18;20.08;;;7.78;;
48203;SDS011;33994;50.998;5.864;2023-12-07T17:05:21;18.67;;;8.20;;
48203;SDS011;33994;50.998;5.864;2023-12-07T17:08:25;18.52;;;8.32;;
48203;SDS011;33994;50.998;5.864;2023-12-07T17:11:28;17.92;;;8.35;;
48203;SDS011;33994;50.998;5.864;2023-12-07T17:14:31;17.08;;;8.40;;
48203;SDS011;33994;50.998;5.864;2023-12-07T17:17:36;16.25;;;8.30;;
48203;SDS011;33994;50.998;5.864;2023-12-07T17:20:40;22.30;;;9.90;;
48203;SDS011;33994;50.998;5.864;2023-12-07T17:23:43;16.55;;;9.48;;
48203;SDS011;33994;50.998;5.864;2023-12-07T17:26:46;18.98;;;9.10;;
48203;SDS011;33994;50.998;5.864;2023-12-07T17:29:50;17.92;;;9.20;;
48203;SDS011;33994;50.998;5.864;2023-12-07T17:32:54;16.05;;;9.13;;
48203;SDS011;33994;50.998;5.864;2023-12-07T17:35:57;21.58;;;9.65;;
48203;SDS011;33994;50.998;5.864;2023-12-07T17:39:00;17.08;;;9.10;;
48203;SDS011;33994;50.998;5.864;2023-12-07T17:42:04;18.40;;;9.90;;
48203;SDS011;33994;50.998;5.864;2023-12-07T17:45:07;20.83;;;8.90;;
48203;SDS011;33994;50.998;5.864;2023-12-07T17:48:13;14.60;;;8.73;;
48203;SDS011;33994;50.998;5.864;2023-12-07T17:51:16;18.73;;;9.38;;
48203;SDS011;33994;50.998;5.864;2023-12-07T17:54:20;15.80;;;8.82;;
48203;SDS011;33994;50.998;5.864;2023-12-07T17:57:24;18.63;;;8.98;;
48203;SDS011;33994;50.998;5.864;2023-12-07T18:00:30;23.88;;;9.18;;
48203;SDS011;33994;50.998;5.864;2023-12-07T18:03:34;22.60;;;9.20;;
48203;SDS011;33994;50.998;5.864;2023-12-07T18:06:37;15.05;;;8.38;;
48203;SDS011;33994;50.998;5.864;2023-12-07T18:09:41;19.45;;;8.93;;